Time;durP1;ratioP1;P1;durP2;ratioP2;P2;SDS_P1;SDS_P2;PMS_P1;PMS_P2;Temp;Humidity;BMP_temperature;BMP_pressure;BME280_temperature;BME280_humidity;BME280_pressure;Samples;Min_cycle;Max_cycle;Signal;HPM_P1;HPM_P2
2022/08/07 00:00:51;;;;;;;;;;;;;;;23.76;49.57;100507.56;5392013;32;36460;-69
2022/08/07 00:03:53;;;;;;;;;;;;;;;23.98;48.86;100503.72;5399080;32;35748;-75
2022/08/07 00:06:55;;;;;;;;;;;;;;;23.55;50.23;100516.69;5391558;32;36371;-73
2022/08/07 00:10:02;;;;;;;;;;;;;;;23.56;49.95;100503.12;5388962;32;35678;-68
2022/08/07 00:13:24;;;;;;;;;;;;;;;23.50;50.82;100509.03;5403175;32;36058;-74
2022/08/07 00:16:27;;;;;;;;;;;;;;;23.83;49.94;100515.00;5391556;32;35648;-75
2022/08/07 00:19:30;;;;;;;;;;;;;;;23.50;50.22;100509.91;5410074;32;37088;-67
2022/08/07 00:22:52;;;;;;;;;;;;;;;23.47;50.99;100514.72;5388213;32;35555;-67
2022/08/07 00:25:53;;;;;;;;;;;;;;;24.15;48.93;100515.56;5388983;32;35408;-74
2022/08/07 00:29:02;;;;;;;;;;;;;;;23.76;49.74;100506.69;5405228;32;35156;-66
2022/08/07 00:32:06;;;;;;;;;;;;;;;23.62;50.14;100513.31;5386772;32;44474;-67
2022/08/07 00:35:08;;;;;;;;;;;;;;;24.54;47.83;100504.75;5410219;32;35393;-75
2022/08/07 00:38:10;;;;;;;;;;;;;;;23.63;49.85;100509.66;5384310;32;35533;-68
2022/08/07 00:41:13;;;;;;;;;;;;;;;23.54;49.89;100509.62;5396472;32;35731;-67
2022/08/07 00:44:16;;;;;;;;;;;;;;;23.40;50.75;100511.75;5406524;32;35176;-67
2022/08/07 00:47:18;;;;;;;;;;;;;;;23.93;49.27;100511.34;5374860;32;35537;-73
2022/08/07 00:50:40;;;;;;;;;;;;;;;23.65;50.00;100496.97;5395306;32;45098;-68
2022/08/07 00:53:47;;;;;;;;;;;;;;;23.44;51.07;100507.81;5379749;32;35996;-74
2022/08/07 00:56:56;;;;;;;;;;;;;;;23.77;49.59;100501.19;5411262;32;35300;-68
2022/08/07 00:59:58;;;;;;;;;;;;;;;23.94;49.42;100498.75;5392219;32;36490;-70
2022/08/07 01:03:00;;;;;;;;;;;;;;;24.52;47.91;100498.66;5383611;32;35088;-76
2022/08/07 01:06:02;;;;;;;;;;;;;;;23.90;49.47;100500.06;5406448;32;35256;-75
2022/08/07 01:09:04;;;;;;;;;;;;;;;24.02;49.14;100498.88;5389249;32;35751;-69
2022/08/07 01:12:08;;;;;;;;;;;;;;;23.49;50.21;100499.31;5401876;32;47203;-69
2022/08/07 01:15:30;;;;;;;;;;;;;;;24.10;48.79;100500.88;5381593;32;35630;-74
2022/08/07 01:18:52;;;;;;;;;;;;;;;23.49;49.79;100507.34;5389335;32;35004;-77
2022/08/07 01:21:55;;;;;;;;;;;;;;;23.73;49.47;100504.28;5404385;32;35455;-67
2022/08/07 01:24:57;;;;;;;;;;;;;;;23.42;50.44;100507.06;5389882;32;35272;-69
2022/08/07 01:27:59;;;;;;;;;;;;;;;24.14;48.57;100502.25;5400894;32;36052;-74
2022/08/07 01:31:01;;;;;;;;;;;;;;;23.72;49.53;100500.78;5391883;32;35537;-67
2022/08/07 01:34:04;;;;;;;;;;;;;;;23.33;50.46;100499.03;5402944;32;35422;-67
2022/08/07 01:37:06;;;;;;;;;;;;;;;23.83;49.19;100488.19;5389800;32;46944;-76
2022/08/07 01:40:11;;;;;;;;;;;;;;;23.45;49.79;100500.59;5390910;32;34665;-75
2022/08/07 01:43:16;;;;;;;;;;;;;;;23.58;49.86;100495.81;5408042;32;34569;-74
2022/08/07 01:46:18;;;;;;;;;;;;;;;24.15;47.92;100502.16;5393595;32;35786;-69
2022/08/07 01:49:22;;;;;;;;;;;;;;;24.58;47.12;100496.22;5412669;32;34695;-68
2022/08/07 01:52:24;;;;;;;;;;;;;;;25.23;45.43;100500.72;5360067;32;36220;-75
2022/08/07 01:55:27;;;;;;;;;;;;;;;24.03;48.13;100495.25;5397067;32;35853;-67
2022/08/07 01:58:31;;;;;;;;;;;;;;;23.63;49.31;100498.91;5401393;32;35917;-74
2022/08/07 02:01:35;;;;;;;;;;;;;;;24.21;47.61;100509.59;5397731;32;35562;-67
2022/08/07 02:05:05;;;;;;;;;;;;;;;24.14;48.07;100502.25;5403495;32;35941;-70
2022/08/07 02:08:08;;;;;;;;;;;;;;;24.35;47.20;100491.37;5382422;32;45018;-67
2022/08/07 02:11:14;;;;;;;;;;;;;;;23.97;48.69;100502.03;5405985;32;34695;-73
2022/08/07 02:14:36;;;;;;;;;;;;;;;24.00;48.33;100507.09;5410465;32;46419;-67
2022/08/07 02:17:42;;;;;;;;;;;;;;;24.56;46.78;100514.34;5371327;32;35022;-74
2022/08/07 02:20:52;;;;;;;;;;;;;;;23.97;48.35;100509.22;5409088;32;35315;-67
2022/08/07 02:23:58;;;;;;;;;;;;;;;23.87;48.79;100511.06;5379438;32;35099;-75
2022/08/07 02:27:02;;;;;;;;;;;;;;;24.10;48.07;100515.16;5411969;32;35634;-66
2022/08/07 02:30:04;;;;;;;;;;;;;;;23.58;49.26;100514.59;5400525;32;35959;-72
2022/08/07 02:33:09;;;;;;;;;;;;;;;24.58;46.74;100506.13;5382097;32;44695;-75
2022/08/07 02:36:11;;;;;;;;;;;;;;;23.86;48.68;100517.44;5411683;32;34855;-75
2022/08/07 02:39:34;;;;;;;;;;;;;;;23.59;49.08;100527.00;5393081;32;38459;-75
2022/08/07 02:42:45;;;;;;;;;;;;;;;24.15;47.54;100520.94;5398526;32;43879;-77
2022/08/07 02:45:47;;;;;;;;;;;;;;;24.14;47.79;100521.91;5395725;32;35528;-69
2022/08/07 02:49:03;;;;;;;;;;;;;;;23.97;48.21;100528.87;5392575;32;36090;-75
2022/08/07 02:52:08;;;;;;;;;;;;;;;23.29;50.08;100524.41;5377160;32;44950;-74
2022/08/07 02:55:15;;;;;;;;;;;;;;;23.08;50.46;100519.16;5387814;32;35227;-67
2022/08/07 02:58:37;;;;;;;;;;;;;;;23.44;49.73;100525.69;5407204;32;44908;-77
2022/08/07 03:01:48;;;;;;;;;;;;;;;24.23;47.69;100530.94;5384652;32;34898;-73
2022/08/07 03:04:55;;;;;;;;;;;;;;;23.48;49.52;100530.66;5387484;32;36099;-68
2022/08/07 03:07:58;;;;;;;;;;;;;;;23.67;48.90;100524.50;5366308;32;939173;-67
2022/08/07 03:11:11;;;;;;;;;;;;;;;23.82;48.62;100529.44;5380576;32;45309;-74
2022/08/07 03:14:13;;;;;;;;;;;;;;;23.57;49.46;100530.78;5405803;32;34679;-75
2022/08/07 03:17:15;;;;;;;;;;;;;;;23.26;50.22;100532.75;5383071;32;35247;-66
2022/08/07 03:20:17;;;;;;;;;;;;;;;23.89;48.09;100523.34;5398689;32;35395;-67
2022/08/07 03:23:20;;;;;;;;;;;;;;;24.09;48.12;100532.25;5395444;32;35969;-75
2022/08/07 03:26:34;;;;;;;;;;;;;;;23.75;48.94;100539.88;5382059;32;35918;-75
2022/08/07 03:29:52;;;;;;;;;;;;;;;24.14;48.03;100532.66;5409374;32;35709;-66
2022/08/07 03:32:55;;;;;;;;;;;;;;;22.85;51.51;100550.62;5368906;32;34838;-73
2022/08/07 03:35:59;;;;;;;;;;;;;;;23.32;50.29;100542.94;5411923;32;34828;-67
2022/08/07 03:39:07;;;;;;;;;;;;;;;23.12;50.58;100537.53;5395136;32;35801;-67
2022/08/07 03:42:10;;;;;;;;;;;;;;;23.09;51.00;100543.13;5383872;32;45942;-67
2022/08/07 03:45:13;;;;;;;;;;;;;;;23.14;50.74;100548.09;5402117;32;35095;-69
2022/08/07 03:48:34;;;;;;;;;;;;;;;23.47;49.61;100539.69;5399183;32;37719;-67
2022/08/07 03:51:56;;;;;;;;;;;;;;;23.16;50.75;100551.47;5383243;32;36543;-66
2022/08/07 03:55:02;;;;;;;;;;;;;;;23.02;50.94;100547.34;5407937;32;35900;-68
2022/08/07 03:58:08;;;;;;;;;;;;;;;23.37;50.09;100541.50;5391679;32;45425;-76
2022/08/07 04:01:30;;;;;;;;;;;;;;;23.84;48.98;100559.69;5407672;32;36479;-71
2022/08/07 04:04:33;;;;;;;;;;;;;;;23.01;51.08;100577.81;5383562;32;36816;-75
2022/08/07 04:07:35;;;;;;;;;;;;;;;23.23;50.59;100563.34;5399061;32;43606;-75
2022/08/07 04:10:47;;;;;;;;;;;;;;;23.45;50.13;100554.25;5399771;32;35755;-76
2022/08/07 04:14:09;;;;;;;;;;;;;;;23.24;50.77;100567.72;5390397;32;44846;-76
2022/08/07 04:17:31;;;;;;;;;;;;;;;22.98;51.74;100578.94;5400642;32;35645;-68
2022/08/07 04:20:53;;;;;;;;;;;;;;;23.22;51.14;100581.28;5388557;32;35771;-75
2022/08/07 04:23:55;;;;;;;;;;;;;;;22.94;51.94;100588.25;5393840;32;35530;-74
2022/08/07 04:27:08;;;;;;;;;;;;;;;22.77;52.41;100590.66;5416796;32;44668;-67
2022/08/07 04:30:30;;;;;;;;;;;;;;;23.47;50.88;100573.72;5397922;32;36296;-75
2022/08/07 04:33:51;;;;;;;;;;;;;;;23.15;52.10;100587.31;5405549;32;36696;-77
2022/08/07 04:36:59;;;;;;;;;;;;;;;23.21;51.61;100597.50;5387524;32;36182;-73
2022/08/07 04:40:08;;;;;;;;;;;;;;;22.59;53.57;100593.94;5378681;32;44388;-67
2022/08/07 04:43:13;;;;;;;;;;;;;;;23.33;51.18;100598.25;5404304;32;34661;-76
2022/08/07 04:46:42;;;;;;;;;;;;;;;23.80;49.64;100593.13;5383525;32;35191;-74
2022/08/07 04:50:06;;;;;;;;;;;;;;;23.45;50.75;100599.84;5401014;32;36398;-67
2022/08/07 04:53:13;;;;;;;;;;;;;;;23.87;49.65;100602.31;5388276;32;45281;-75
2022/08/07 04:56:43;;;;;;;;;;;;;;;23.70;49.94;100596.69;5390203;32;43786;-69
2022/08/07 05:00:31;;;;;;;;;;;;;;;23.90;49.17;100599.37;5397849;32;43621;-68
2022/08/07 05:03:46;;;;;;;;;;;;;;;23.49;50.90;100607.44;5364782;32;35516;-77
2022/08/07 05:07:16;;;;;;;;;;;;;;;24.18;48.26;100603.88;5383030;32;36259;-75
2022/08/07 05:10:40;;;;;;;;;;;;;;;23.65;49.39;100600.75;5407788;32;35548;-75
2022/08/07 05:13:46;;;;;;;;;;;;;;;24.16;47.80;100613.94;5393549;32;44393;-69
2022/08/07 05:17:09;;;;;;;;;;;;;;;23.15;50.56;100623.03;5388502;32;47694;-67
2022/08/07 05:20:16;;;;;;;;;;;;;;;23.10;50.72;100627.09;5410853;32;36121;-68
2022/08/07 05:23:19;;;;;;;;;;;;;;;23.72;49.22;100637.63;5370536;32;35260;-69
2022/08/07 05:26:31;;;;;;;;;;;;;;;24.16;47.61;100619.28;5391321;32;36138;-73
2022/08/07 05:29:37;;;;;;;;;;;;;;;24.42;47.02;100613.37;5396642;32;35758;-75
2022/08/07 05:32:54;;;;;;;;;;;;;;;24.72;45.82;100614.97;5385353;32;35641;-70
2022/08/07 05:35:58;;;;;;;;;;;;;;;24.72;45.91;100625.72;5407933;32;35011;-73
2022/08/07 05:39:00;;;;;;;;;;;;;;;24.43;46.66;100617.75;5391049;32;35008;-75
2022/08/07 05:42:22;;;;;;;;;;;;;;;24.58;46.14;100633.25;5399613;32;35906;-67
2022/08/07 05:45:35;;;;;;;;;;;;;;;24.25;46.84;100629.19;5390275;32;44693;-74
2022/08/07 05:48:49;;;;;;;;;;;;;;;24.18;46.57;100640.63;5391308;32;35113;-68
2022/08/07 05:52:00;;;;;;;;;;;;;;;23.42;47.82;100632.28;5382889;32;35910;-68
2022/08/07 05:55:04;;;;;;;;;;;;;;;24.23;46.30;100639.22;5393545;32;35287;-69
2022/08/07 05:58:12;;;;;;;;;;;;;;;23.64;47.48;100648.22;5404813;32;44306;-76
2022/08/07 06:01:14;;;;;;;;;;;;;;;23.50;47.79;100648.53;5388093;32;35856;-74
2022/08/07 06:04:17;;;;;;;;;;;;;;;23.03;49.03;100645.53;5394852;32;34721;-67
2022/08/07 06:07:20;;;;;;;;;;;;;;;23.14;48.52;100637.41;5399308;32;35525;-69
2022/08/07 06:10:42;;;;;;;;;;;;;;;23.40;48.18;100636.94;5392138;32;45461;-75
2022/08/07 06:13:44;;;;;;;;;;;;;;;24.01;46.64;100628.75;5410459;32;34787;-67
2022/08/07 06:17:07;;;;;;;;;;;;;;;24.31;45.70;100628.59;5399187;32;44972;-74
2022/08/07 06:20:09;;;;;;;;;;;;;;;24.17;45.80;100637.09;5426177;32;35830;-75
2022/08/07 06:23:26;;;;;;;;;;;;;;;24.77;44.54;100635.06;5388077;32;35453;-74
2022/08/07 06:26:48;;;;;;;;;;;;;;;24.37;45.32;100647.88;5379121;32;35043;-74
2022/08/07 06:29:51;;;;;;;;;;;;;;;24.86;44.12;100652.19;5408645;32;35511;-67
2022/08/07 06:32:53;;;;;;;;;;;;;;;25.24;42.73;100648.50;5380532;32;35253;-76
2022/08/07 06:35:55;;;;;;;;;;;;;;;24.49;44.30;100657.47;5400109;32;35542;-66
2022/08/07 06:39:14;;;;;;;;;;;;;;;24.37;44.62;100663.97;5390490;32;45278;-75
2022/08/07 06:42:36;;;;;;;;;;;;;;;24.66;43.87;100663.94;5385032;32;44802;-67
2022/08/07 06:45:38;;;;;;;;;;;;;;;24.87;43.36;100650.34;5413254;32;35041;-76
2022/08/07 06:48:45;;;;;;;;;;;;;;;24.49;44.04;100668.22;5385300;32;35343;-70
2022/08/07 06:51:47;;;;;;;;;;;;;;;24.94;42.09;100670.25;5392174;32;35663;-68
2022/08/07 06:54:50;;;;;;;;;;;;;;;24.63;43.00;100673.16;5395057;32;34815;-76
2022/08/07 06:58:12;;;;;;;;;;;;;;;24.88;42.72;100670.84;5366969;32;44783;-75
2022/08/07 07:01:17;;;;;;;;;;;;;;;25.81;40.61;100673.44;5405353;32;35610;-76
2022/08/07 07:04:19;;;;;;;;;;;;;;;25.12;41.61;100666.69;5381601;32;37809;-76
2022/08/07 07:07:33;;;;;;;;;;;;;;;25.00;41.98;100670.53;5397266;32;35148;-68
2022/08/07 07:10:55;;;;;;;;;;;;;;;25.10;41.42;100675.88;5392046;32;35771;-67
2022/08/07 07:13:59;;;;;;;;;;;;;;;24.86;41.58;100676.38;5392172;32;35126;-68
2022/08/07 07:17:05;;;;;;;;;;;;;;;24.36;42.65;100676.56;5399996;32;35340;-75
2022/08/07 07:20:17;;;;;;;;;;;;;;;25.63;40.31;100672.53;5389592;32;33813;-69
2022/08/07 07:23:19;;;;;;;;;;;;;;;25.40;39.88;100674.78;5396114;32;34803;-75
2022/08/07 07:26:43;;;;;;;;;;;;;;;25.65;39.28;100668.72;5390780;32;46916;-68
2022/08/07 07:29:53;;;;;;;;;;;;;;;24.62;41.47;100678.66;5391965;32;35249;-76
2022/08/07 07:33:10;;;;;;;;;;;;;;;24.87;40.90;100667.31;5405924;32;44671;-67
2022/08/07 07:36:14;;;;;;;;;;;;;;;24.61;41.38;100671.59;5394501;32;34701;-70
2022/08/07 07:39:18;;;;;;;;;;;;;;;24.64;40.96;100661.41;5405575;32;35812;-67
2022/08/07 07:42:23;;;;;;;;;;;;;;;23.97;42.45;100667.63;5377518;32;33666;-76
2022/08/07 07:45:33;;;;;;;;;;;;;;;24.52;41.27;100662.53;5392202;32;35047;-67
2022/08/07 07:48:55;;;;;;;;;;;;;;;25.23;39.56;100665.66;5402248;32;35009;-67
2022/08/07 07:52:01;;;;;;;;;;;;;;;24.71;40.96;100653.59;5361407;32;35351;-67
2022/08/07 07:55:04;;;;;;;;;;;;;;;25.83;38.16;100665.25;5406231;32;35465;-75
2022/08/07 07:58:06;;;;;;;;;;;;;;;24.93;39.91;100644.37;5376004;32;46126;-76
2022/08/07 08:01:11;;;;;;;;;;;;;;;25.86;38.27;100660.37;5396153;32;36212;-69
2022/08/07 08:04:32;;;;;;;;;;;;;;;26.69;36.60;100661.00;5408503;32;35705;-68
2022/08/07 08:07:35;;;;;;;;;;;;;;;25.81;37.75;100668.06;5379922;32;44626;-69
2022/08/07 08:10:58;;;;;;;;;;;;;;;26.19;37.27;100660.72;5406835;32;35986;-67
2022/08/07 08:14:00;;;;;;;;;;;;;;;25.60;38.42;100672.84;5389020;32;34898;-75
2022/08/07 08:17:07;;;;;;;;;;;;;;;25.63;38.62;100672.53;5393407;32;34601;-74
2022/08/07 08:20:30;;;;;;;;;;;;;;;26.25;36.91;100664.63;5407232;32;36918;-76
2022/08/07 08:27:04;;;;;;;;;;;;;;;27.20;35.40;100650.37;5410547;32;35908;-74
2022/08/07 08:30:11;;;;;;;;;;;;;;;27.51;34.53;100662.31;5400259;32;45964;-75
2022/08/07 08:33:20;;;;;;;;;;;;;;;27.63;34.25;100665.59;5397812;32;34863;-67
2022/08/07 08:36:23;;;;;;;;;;;;;;;26.81;35.75;100666.12;5405346;32;37012;-68
2022/08/07 08:39:30;;;;;;;;;;;;;;;27.83;33.77;100668.88;5395752;32;34724;-69
2022/08/07 08:42:51;;;;;;;;;;;;;;;28.07;32.94;100668.91;5397210;32;45132;-68
2022/08/07 08:46:14;;;;;;;;;;;;;;;27.97;33.40;100662.81;5393285;32;35176;-73
2022/08/07 08:49:19;;;;;;;;;;;;;;;27.09;34.21;100678.47;5377716;32;35839;-69
2022/08/07 08:52:49;;;;;;;;;;;;;;;28.41;32.04;100672.53;5375539;32;45056;-69
2022/08/07 08:55:59;;;;;;;;;;;;;;;26.46;35.22;100674.09;5392405;32;35378;-75
2022/08/07 08:59:01;;;;;;;;;;;;;;;28.26;32.19;100659.62;5403357;32;35735;-76
2022/08/07 09:02:18;;;;;;;;;;;;;;;28.72;31.57;100664.56;5388186;32;47120;-75
2022/08/07 09:05:50;;;;;;;;;;;;;;;29.16;30.81;100656.88;5383027;32;43163;-76
2022/08/07 09:09:00;;;;;;;;;;;;;;;30.95;27.89;100655.72;5411306;32;36598;-67
2022/08/07 09:12:31;;;;;;;;;;;;;;;30.64;28.39;100663.13;5385125;32;35988;-68
2022/08/07 09:15:46;;;;;;;;;;;;;;;29.27;30.37;100670.03;5337486;32;34650;-77
2022/08/07 09:19:16;;;;;;;;;;;;;;;31.36;27.61;100651.72;5404883;32;35881;-75
2022/08/07 09:22:40;;;;;;;;;;;;;;;31.07;27.76;100664.25;5381593;32;46707;-76
2022/08/07 09:26:22;;;;;;;;;;;;;;;31.03;27.92;100654.78;5395906;32;35918;-75
2022/08/07 09:29:30;;;;;;;;;;;;;;;31.73;26.63;100657.00;5377106;32;35624;-70
2022/08/07 09:33:03;;;;;;;;;;;;;;;30.74;28.06;100653.75;5381727;32;35586;-77
2022/08/07 09:36:31;;;;;;;;;;;;;;;30.30;28.62;100658.19;5409335;32;35040;-76
2022/08/07 09:40:07;;;;;;;;;;;;;;;31.22;27.41;100640.66;5399553;32;44820;-75
2022/08/07 09:43:22;;;;;;;;;;;;;;;30.34;28.52;100652.22;5332193;32;44629;-76
2022/08/07 09:46:44;;;;;;;;;;;;;;;30.29;28.91;100642.94;5407518;32;44684;-75
2022/08/07 09:50:08;;;;;;;;;;;;;;;30.39;28.54;100641.66;5392601;32;45195;-69
2022/08/07 09:53:21;;;;;;;;;;;;;;;30.53;28.40;100650.87;5384307;32;35588;-73
2022/08/07 09:56:41;;;;;;;;;;;;;;;30.54;28.16;100649.84;5416531;32;35354;-67
2022/08/07 09:59:52;;;;;;;;;;;;;;;30.24;29.13;100634.50;5388686;32;35872;-75
2022/08/07 10:03:05;;;;;;;;;;;;;;;30.96;27.95;100624.00;5386980;32;36041;-70
2022/08/07 10:06:33;;;;;;;;;;;;;;;30.47;28.66;100629.91;5399804;32;35277;-70
2022/08/07 10:09:42;;;;;;;;;;;;;;;31.55;27.25;100616.66;5391319;32;43985;-76
2022/08/07 10:13:19;;;;;;;;;;;;;;;30.47;28.64;100613.66;5399235;32;35869;-76
2022/08/07 10:16:59;;;;;;;;;;;;;;;31.35;27.71;100609.31;5397560;32;36063;-76
2022/08/07 10:20:20;;;;;;;;;;;;;;;30.65;28.97;100608.69;5390550;32;35772;-70
2022/08/07 10:23:34;;;;;;;;;;;;;;;31.86;27.50;100612.00;5398691;32;35608;-69
2022/08/07 10:27:02;;;;;;;;;;;;;;;32.86;25.45;100601.81;5381995;32;35904;-68
2022/08/07 10:30:18;;;;;;;;;;;;;;;30.85;28.65;100591.91;5391940;32;45263;-69
2022/08/07 10:33:33;;;;;;;;;;;;;;;30.77;29.26;100592.84;5399323;32;35812;-69
2022/08/07 10:37:10;;;;;;;;;;;;;;;31.52;28.38;100602.63;5389245;32;36059;-67
2022/08/07 10:40:16;;;;;;;;;;;;;;;31.67;27.48;100602.59;5396190;32;46795;-68
2022/08/07 10:43:28;;;;;;;;;;;;;;;31.08;28.41;100589.94;5401390;32;35734;-67
2022/08/07 10:46:39;;;;;;;;;;;;;;;31.58;27.95;100592.87;5378479;32;43686;-68
2022/08/07 10:49:54;;;;;;;;;;;;;;;30.67;29.20;100590.41;5395982;32;34764;-68
2022/08/07 10:53:05;;;;;;;;;;;;;;;30.54;29.27;100576.63;5366523;32;35516;-69
2022/08/07 10:56:24;;;;;;;;;;;;;;;31.38;28.41;100576.34;5396511;32;44510;-68
2022/08/07 10:59:37;;;;;;;;;;;;;;;31.68;28.13;100571.66;5409717;32;37754;-69
2022/08/07 11:02:41;;;;;;;;;;;;;;;31.74;28.03;100570.88;5384553;32;45037;-75
2022/08/07 11:05:55;;;;;;;;;;;;;;;31.29;28.86;100564.75;5402935;32;35374;-68
2022/08/07 11:09:02;;;;;;;;;;;;;;;32.06;27.64;100556.78;5382711;32;35457;-76
2022/08/07 11:12:19;;;;;;;;;;;;;;;31.98;27.76;100556.09;5383400;32;43333;-69
2022/08/07 11:15:34;;;;;;;;;;;;;;;32.19;27.37;100561.50;5405855;32;35988;-69
2022/08/07 11:18:42;;;;;;;;;;;;;;;32.55;26.71;100555.97;5395985;32;44519;-76
2022/08/07 11:21:51;;;;;;;;;;;;;;;33.08;26.05;100550.00;5403482;32;34752;-76
2022/08/07 11:25:13;;;;;;;;;;;;;;;31.47;28.79;100553.47;5389509;32;35818;-69
2022/08/07 11:28:26;;;;;;;;;;;;;;;32.56;26.98;100540.47;5382171;32;34809;-69
2022/08/07 11:31:49;;;;;;;;;;;;;;;32.99;26.25;100543.88;5411068;32;36184;-74
2022/08/07 11:34:54;;;;;;;;;;;;;;;32.02;27.80;100535.66;5390336;32;35753;-76
2022/08/07 11:38:16;;;;;;;;;;;;;;;32.22;27.56;100531.22;5395029;32;35683;-76
2022/08/07 11:41:21;;;;;;;;;;;;;;;33.34;26.42;100532.91;5389172;32;36456;-69
2022/08/07 11:44:43;;;;;;;;;;;;;;;32.82;26.91;100529.75;5391409;32;45142;-75
2022/08/07 11:48:22;;;;;;;;;;;;;;;32.40;27.71;100524.47;5402286;32;35356;-69
2022/08/07 11:51:33;;;;;;;;;;;;;;;34.35;25.32;100527.41;5365727;32;36057;-77
2022/08/07 11:55:08;;;;;;;;;;;;;;;34.21;25.25;100526.56;5398557;32;35123;-77
2022/08/07 11:58:32;;;;;;;;;;;;;;;34.08;25.85;100521.13;5399157;32;35785;-68
2022/08/07 12:01:34;;;;;;;;;;;;;;;35.13;24.71;100502.84;5386072;32;35087;-75
2022/08/07 12:05:11;;;;;;;;;;;;;;;37.32;21.58;100507.16;5396541;32;35764;-76
2022/08/07 12:08:31;;;;;;;;;;;;;;;37.43;21.05;100498.16;5404349;32;35477;-75
2022/08/07 12:11:45;;;;;;;;;;;;;;;36.56;22.07;100501.13;5385859;32;44735;-69
2022/08/07 12:15:14;;;;;;;;;;;;;;;36.65;22.04;100489.84;5400987;32;47051;-77
2022/08/07 12:18:41;;;;;;;;;;;;;;;39.37;19.05;100494.37;5409186;32;45198;-76
2022/08/07 12:21:58;;;;;;;;;;;;;;;38.58;19.93;100489.47;5393776;32;34599;-68
2022/08/07 12:25:51;;;;;;;;;;;;;;;38.04;20.23;100496.97;5410975;32;35083;-77
2022/08/07 12:29:27;;;;;;;;;;;;;;;37.84;20.47;100485.53;5401582;32;36125;-77
2022/08/07 12:32:49;;;;;;;;;;;;;;;38.59;19.54;100485.66;5386206;32;44742;-76
2022/08/07 12:35:51;;;;;;;;;;;;;;;35.33;23.26;100491.81;5387221;32;35713;-77
2022/08/07 12:39:00;;;;;;;;;;;;;;;34.33;24.82;100478.50;5395347;32;35348;-70
2022/08/07 12:42:02;;;;;;;;;;;;;;;34.34;24.67;100488.37;5385088;32;36227;-70
2022/08/07 12:45:11;;;;;;;;;;;;;;;34.69;24.45;100482.62;5400651;32;45865;-76
2022/08/07 12:48:17;;;;;;;;;;;;;;;34.78;24.12;100475.88;5395907;32;34831;-73
2022/08/07 12:51:40;;;;;;;;;;;;;;;34.26;24.72;100474.94;5381895;32;47499;-76
2022/08/07 12:55:04;;;;;;;;;;;;;;;31.66;28.85;100474.06;5390264;32;36448;-76
2022/08/07 12:58:17;;;;;;;;;;;;;;;31.90;28.78;100472.00;5395365;32;35266;-73
2022/08/07 13:01:25;;;;;;;;;;;;;;;31.24;30.07;100459.44;5405001;32;36728;-76
2022/08/07 13:04:41;;;;;;;;;;;;;;;30.80;30.20;100466.84;5391213;32;34905;-75
2022/08/07 13:08:12;;;;;;;;;;;;;;;32.06;28.29;100455.38;5398264;32;35685;-69
2022/08/07 13:11:20;;;;;;;;;;;;;;;32.13;28.19;100453.53;5386304;32;35688;-69
2022/08/07 13:14:41;;;;;;;;;;;;;;;31.83;29.16;100466.50;5388235;32;35952;-70
2022/08/07 13:18:07;;;;;;;;;;;;;;;32.51;28.25;100453.19;5399655;32;35551;-75
2022/08/07 13:21:13;;;;;;;;;;;;;;;31.78;29.01;100458.06;5388691;32;46500;-76
2022/08/07 13:24:43;;;;;;;;;;;;;;;32.22;28.30;100460.53;5398702;32;45466;-76
2022/08/07 13:28:06;;;;;;;;;;;;;;;32.07;28.68;100455.22;5404574;32;37757;-68
2022/08/07 13:31:23;;;;;;;;;;;;;;;31.55;29.04;100456.38;5387651;32;37569;-68
2022/08/07 13:34:38;;;;;;;;;;;;;;;31.89;28.78;100454.00;5405674;32;36381;-68
2022/08/07 13:38:08;;;;;;;;;;;;;;;33.69;26.21;100446.44;5386402;32;37312;-70
2022/08/07 13:41:10;;;;;;;;;;;;;;;33.89;25.71;100438.25;5382674;32;44363;-69
2022/08/07 13:44:12;;;;;;;;;;;;;;;32.75;27.68;100430.91;5406107;32;35377;-70
2022/08/07 13:47:14;;;;;;;;;;;;;;;31.91;28.77;100435.62;5395009;32;34165;-69
2022/08/07 13:50:23;;;;;;;;;;;;;;;32.13;28.61;100442.66;5405019;32;35262;-68
2022/08/07 13:53:49;;;;;;;;;;;;;;;31.32;29.41;100433.22;5379813;32;38171;-75
2022/08/07 13:57:05;;;;;;;;;;;;;;;31.86;28.91;100432.66;5385150;32;35558;-76
2022/08/07 14:00:11;;;;;;;;;;;;;;;32.14;28.16;100417.19;5402963;32;44311;-69
2022/08/07 14:03:27;;;;;;;;;;;;;;;32.60;27.74;100413.91;5394736;32;36012;-68
2022/08/07 14:06:49;;;;;;;;;;;;;;;31.54;29.05;100411.25;5397687;32;37371;-75
2022/08/07 14:09:51;;;;;;;;;;;;;;;32.99;27.06;100406.94;5410282;32;35826;-68
2022/08/07 14:13:14;;;;;;;;;;;;;;;33.77;26.21;100401.78;5392267;32;45681;-75
2022/08/07 14:16:17;;;;;;;;;;;;;;;33.01;27.32;100408.41;5412765;32;36377;-66
2022/08/07 14:19:30;;;;;;;;;;;;;;;33.15;26.88;100398.38;5396104;32;34923;-76
2022/08/07 14:22:57;;;;;;;;;;;;;;;32.86;27.28;100400.41;5387699;32;35019;-76
2022/08/07 14:26:13;;;;;;;;;;;;;;;32.74;27.59;100407.44;5405128;32;35585;-70
2022/08/07 14:29:33;;;;;;;;;;;;;;;32.76;27.79;100396.34;5388804;32;36023;-69
2022/08/07 14:32:57;;;;;;;;;;;;;;;32.03;28.65;100401.44;5404592;32;35050;-75
2022/08/07 14:35:59;;;;;;;;;;;;;;;32.49;27.91;100404.41;5397801;32;37430;-68
2022/08/07 14:39:03;;;;;;;;;;;;;;;32.18;28.51;100395.84;5392888;32;35347;-75
2022/08/07 14:42:09;;;;;;;;;;;;;;;32.92;27.53;100397.91;5399520;32;44365;-76
2022/08/07 14:45:25;;;;;;;;;;;;;;;31.85;28.69;100388.34;5394074;32;35300;-75
2022/08/07 14:48:47;;;;;;;;;;;;;;;31.69;29.14;100384.03;5402190;32;35028;-68
2022/08/07 14:51:51;;;;;;;;;;;;;;;31.82;28.92;100375.16;5376605;32;35284;-75
2022/08/07 14:55:13;;;;;;;;;;;;;;;32.83;27.66;100381.72;5390336;32;44948;-68
2022/08/07 14:58:20;;;;;;;;;;;;;;;32.21;28.42;100369.13;5399302;32;37151;-75
2022/08/07 15:01:44;;;;;;;;;;;;;;;31.82;29.02;100364.28;5392583;32;45070;-68
2022/08/07 15:05:06;;;;;;;;;;;;;;;31.60;29.40;100371.59;5395055;32;45166;-75
2022/08/07 15:08:37;;;;;;;;;;;;;;;32.06;28.85;100371.94;5412727;32;35640;-70
2022/08/07 15:11:59;;;;;;;;;;;;;;;32.72;27.68;100366.00;5384442;32;35384;-75
2022/08/07 15:15:37;;;;;;;;;;;;;;;32.73;27.29;100358.69;5404297;32;36497;-77
2022/08/07 15:18:42;;;;;;;;;;;;;;;32.13;28.58;100363.00;5393796;32;47451;-75
2022/08/07 15:21:47;;;;;;;;;;;;;;;32.53;28.05;100362.19;5381612;32;34747;-69
2022/08/07 15:25:06;;;;;;;;;;;;;;;31.87;29.01;100358.25;5414631;32;44536;-74
2022/08/07 15:28:21;;;;;;;;;;;;;;;31.93;28.98;100358.28;5388717;32;35218;-78
2022/08/07 15:31:43;;;;;;;;;;;;;;;32.61;27.72;100347.56;5398748;32;44347;-69
2022/08/07 15:35:05;;;;;;;;;;;;;;;31.87;29.19;100355.53;5398700;32;34774;-75
2022/08/07 15:38:07;;;;;;;;;;;;;;;31.86;29.00;100348.41;5380541;32;44722;-74
2022/08/07 15:41:30;;;;;;;;;;;;;;;32.13;28.76;100343.97;5404408;32;36748;-74
2022/08/07 15:44:51;;;;;;;;;;;;;;;32.29;28.56;100338.19;5396507;32;36101;-75
2022/08/07 15:47:55;;;;;;;;;;;;;;;31.73;29.25;100349.97;5394764;32;34524;-69
2022/08/07 15:51:05;;;;;;;;;;;;;;;31.67;29.24;100350.75;5396225;32;35562;-75
2022/08/07 15:54:35;;;;;;;;;;;;;;;32.09;28.59;100332.66;5390390;32;35699;-75
2022/08/07 15:57:42;;;;;;;;;;;;;;;32.16;28.66;100343.56;5409535;32;44886;-68
2022/08/07 16:00:50;;;;;;;;;;;;;;;32.47;28.12;100337.69;5380699;32;37820;-76
2022/08/07 16:03:55;;;;;;;;;;;;;;;32.19;28.45;100333.13;5380682;32;35219;-69
2022/08/07 16:06:59;;;;;;;;;;;;;;;33.06;27.29;100331.56;5394986;32;35256;-75
2022/08/07 16:10:12;;;;;;;;;;;;;;;32.68;27.75;100336.69;5385099;32;47193;-68
2022/08/07 16:13:18;;;;;;;;;;;;;;;31.69;29.22;100337.84;5410740;32;35712;-74
2022/08/07 16:16:43;;;;;;;;;;;;;;;32.58;28.00;100335.19;5381762;32;43796;-68
2022/08/07 16:20:05;;;;;;;;;;;;;;;32.11;28.84;100340.62;5386680;32;34223;-76
2022/08/07 16:23:17;;;;;;;;;;;;;;;31.59;29.30;100323.75;5397636;32;44741;-76
2022/08/07 16:26:51;;;;;;;;;;;;;;;32.52;28.10;100333.28;5381086;32;44711;-68
2022/08/07 16:30:02;;;;;;;;;;;;;;;31.54;29.58;100339.78;5395073;32;35469;-67
2022/08/07 16:33:25;;;;;;;;;;;;;;;31.49;29.71;100326.84;5417259;32;35395;-74